ESOK

Karlstad Airport

Karlstad, Sweden
TAF AMD ESOK 260256Z 2603/2612 23006KT CAVOK PROB40 2603/2607 0600 BCFG BKN004
Issued Valid From Valid To
Apr-26 @ 02:56 UTC
(51 minutes ago)
Apr-26 @ 03:00 UTC
(47 minutes ago)
Apr-26 @ 12:00 UTC
(in 8 hours)
Apr-26 @ 03:00 to Apr-26 @ 12:00
TAF AMD ESOK 260256Z 2603/2612 23006KT CAVOK
Wind Visibility Clouds Conditions
230° at 6 knots 10,000+ meters
  • No significant clouds
Probable  (Probability 40%) Apr-26 @ 03:00 to Apr-26 @ 07:00
PROB40 2603/2607 0600 BCFG BKN004
Visibility Clouds Conditions
595 meters
  • Broken at 400' AGL
  • Patches of
  • Fog
TAF AMD ESOK 260256Z 2603/2612 23006KT CAVOK PROB40 2603/2607 0600 BCFG BKN004
Issued Apr-26 @ 02:56 UTC
(51 minutes ago)
Valid From Apr-26 @ 03:00 UTC
(47 minutes ago)
Valid To Apr-26 @ 12:00 UTC
(in 8 hours)
Apr-26 @ 03:00 - Apr-26 @ 12:00
Wind Visibility
230° at 6 knots 10,000+ meters
Clouds
  • No significant clouds
Conditions
Probability 40% Probable Apr-26 @ 03:00 - Apr-26 @ 07:00
Clouds
  • Broken at 400' AGL
Conditions
  • Patches of
  • Fog